createdAt,value
2023-03-24T00:04:19.210Z,69.48
2023-03-24T00:09:20.741Z,70.08
2023-03-24T00:14:23.470Z,69.86
2023-03-24T00:19:25.000Z,70.27
2023-03-24T00:24:27.267Z,70.28
2023-03-24T00:29:29.456Z,70.09
2023-03-24T00:34:30.878Z,70.03
2023-03-24T00:39:32.824Z,69.75
2023-03-24T00:44:34.362Z,70.67
2023-03-24T00:49:48.202Z,70.61
2023-03-24T00:54:52.075Z,71.20
2023-03-24T00:59:54.610Z,71.39
2023-03-24T01:04:58.698Z,71.29
2023-03-24T01:10:00.348Z,71.57
2023-03-24T01:15:05.588Z,71.35
2023-03-24T01:20:08.375Z,71.47
2023-03-24T01:25:18.885Z,71.18
2023-03-24T01:30:24.929Z,71.47
2023-03-24T01:35:29.305Z,71.45
2023-03-24T01:40:33.347Z,71.49
2023-03-24T01:46:06.079Z,71.48
2023-03-24T01:51:17.411Z,71.86
2023-03-24T01:56:19.575Z,72.36
2023-03-24T02:01:22.012Z,72.44
2023-03-24T02:06:26.591Z,72.66
2023-03-24T02:11:32.388Z,73.26
2023-03-24T02:16:49.105Z,73.75
2023-03-24T02:21:59.532Z,72.67
2023-03-24T02:27:13.788Z,72.37
2023-03-24T02:32:33.328Z,72.76
2023-03-24T02:37:37.459Z,71.88
2023-03-24T02:42:45.744Z,71.59
2023-03-24T02:47:59.297Z,71.96
2023-03-24T02:53:19.391Z,72.11
2023-03-24T02:58:35.252Z,72.11
2023-03-24T03:03:42.635Z,73.63
2023-03-24T03:08:47.704Z,72.88
2023-03-24T03:13:54.464Z,74.17
2023-03-24T03:19:01.342Z,73.90
2023-03-24T03:24:09.383Z,74.13
2023-03-24T03:29:35.139Z,74.54
2023-03-24T03:34:45.622Z,74.83
2023-03-24T03:39:52.654Z,76.27
2023-03-24T03:44:54.350Z,75.90
2023-03-24T03:49:55.803Z,75.97
2023-03-24T03:54:58.848Z,76.46
2023-03-24T04:00:11.997Z,76.65
2023-03-24T04:05:26.112Z,76.95
2023-03-24T04:10:35.983Z,77.30
2023-03-24T04:16:16.352Z,77.53
2023-03-24T04:21:36.375Z,77.58
2023-03-24T04:26:43.333Z,77.42
2023-03-24T04:32:02.361Z,77.33
2023-03-24T04:37:18.415Z,77.26
2023-03-24T04:42:25.557Z,77.42
2023-03-24T04:47:32.315Z,77.13
2023-03-24T04:52:33.761Z,77.13
2023-03-24T04:57:35.280Z,76.94
2023-03-24T05:02:37.031Z,78.20
2023-03-24T05:07:38.566Z,78.14
2023-03-24T05:12:39.983Z,77.43
2023-03-24T05:17:41.855Z,77.98
2023-03-24T05:22:43.343Z,78.71
2023-03-24T05:27:45.596Z,77.83
2023-03-24T05:32:47.470Z,78.50
2023-03-24T05:37:48.996Z,77.40
2023-03-24T05:42:51.078Z,77.05
2023-03-24T05:47:52.597Z,77.45
2023-03-24T05:52:54.127Z,79.19
2023-03-24T05:57:55.861Z,78.07
2023-03-24T06:02:58.271Z,78.34
2023-03-24T06:08:01.392Z,77.98
2023-03-24T06:13:03.337Z,78.25
2023-03-24T06:18:05.282Z,77.17
2023-03-24T06:23:06.914Z,77.29
2023-03-24T06:28:12.317Z,77.09
2023-03-24T06:33:13.914Z,77.25
2023-03-24T06:38:15.434Z,77.08
2023-03-24T06:43:16.875Z,76.76
2023-03-24T06:48:18.318Z,76.70
2023-03-24T06:53:21.765Z,76.42
2023-03-24T06:58:23.228Z,76.06
2023-03-24T07:03:25.119Z,76.23
2023-03-24T07:08:37.329Z,76.52
2023-03-24T07:13:40.146Z,78.15
2023-03-24T07:18:41.632Z,78.44
2023-03-24T07:23:43.093Z,77.54
2023-03-24T07:28:44.515Z,78.31
2023-03-24T07:33:46.035Z,78.62
2023-03-24T07:38:47.607Z,79.22
2023-03-24T07:43:49.029Z,79.28
2023-03-24T07:48:50.462Z,82.66
2023-03-24T07:53:52.224Z,83.66
2023-03-24T07:58:53.684Z,84.91
2023-03-24T08:03:56.152Z,84.91
2023-03-24T08:08:57.840Z,82.29
2023-03-24T08:13:59.431Z,82.20
2023-03-24T08:19:00.918Z,83.26
2023-03-24T08:24:02.346Z,84.14
2023-03-24T08:29:04.150Z,82.74
2023-03-24T08:34:06.570Z,81.05
2023-03-24T08:39:09.673Z,79.49
2023-03-24T08:44:11.743Z,76.03
2023-03-24T08:49:13.159Z,74.89
2023-03-24T08:54:14.675Z,73.28
2023-03-24T08:59:16.435Z,72.39
2023-03-24T09:04:17.904Z,71.63
2023-03-24T09:09:19.403Z,72.01
2023-03-24T09:14:22.645Z,72.28
2023-03-24T09:19:24.065Z,72.10
2023-03-24T09:24:25.525Z,72.18
2023-03-24T09:29:27.070Z,72.57
2023-03-24T09:34:28.691Z,72.73
2023-03-24T09:39:30.124Z,73.87
2023-03-24T09:44:36.879Z,73.39
2023-03-24T09:49:42.127Z,72.60
2023-03-24T09:54:59.705Z,69.30
2023-03-24T10:00:02.348Z,68.77
2023-03-24T10:05:12.905Z,66.62
2023-03-24T10:10:33.405Z,68.12
2023-03-24T10:15:49.709Z,66.55
2023-03-24T10:21:25.398Z,66.41
2023-03-24T10:26:42.248Z,63.26
2023-03-24T10:31:48.515Z,62.79
2023-03-24T10:36:52.339Z,60.87
2023-03-24T10:41:54.702Z,58.57
2023-03-24T10:47:02.530Z,56.53
2023-03-24T10:52:09.522Z,55.49
2023-03-24T10:57:18.370Z,54.41
2023-03-24T11:02:52.881Z,54.89
2023-03-24T11:08:12.318Z,55.54
2023-03-24T11:13:28.758Z,56.20
2023-03-24T11:18:30.262Z,56.32
2023-03-24T11:23:44.563Z,54.48
2023-03-24T11:28:52.382Z,54.17
2023-03-24T11:34:03.496Z,55.57
2023-03-24T11:39:07.605Z,54.54
2023-03-24T11:44:23.658Z,55.49
2023-03-24T11:49:35.045Z,56.03
2023-03-24T11:54:36.887Z,56.71
2023-03-24T12:00:00.007Z,56.84
2023-03-24T12:05:23.715Z,57.37
2023-03-24T12:10:41.133Z,57.85
2023-03-24T12:16:00.611Z,56.35
2023-03-24T12:21:13.108Z,56.63
2023-03-24T12:26:28.527Z,57.61
2023-03-24T12:31:32.869Z,57.45
2023-03-24T12:36:53.201Z,57.94
2023-03-24T12:41:57.571Z,57.79
2023-03-24T12:47:29.609Z,57.80
2023-03-24T12:53:07.571Z,57.46
2023-03-24T12:58:19.858Z,58.18
2023-03-24T13:03:29.521Z,59.09
2023-03-24T13:08:32.182Z,59.32
2023-03-24T13:13:40.110Z,60.36
2023-03-24T13:18:50.616Z,60.72
2023-03-24T13:23:57.348Z,61.22
2023-03-24T13:29:48.416Z,61.56
2023-03-24T13:35:17.462Z,61.71
2023-03-24T13:40:27.726Z,61.16
2023-03-24T13:45:39.114Z,60.27
2023-03-24T13:50:48.728Z,60.18
2023-03-24T13:55:52.840Z,60.40
2023-03-24T14:01:06.800Z,59.74
2023-03-24T14:06:09.759Z,60.09
2023-03-24T14:11:38.277Z,60.21
2023-03-24T14:17:01.834Z,60.14
2023-03-24T14:22:06.363Z,59.93
2023-03-24T14:27:35.004Z,59.72
2023-03-24T14:32:47.332Z,59.96
2023-03-24T14:38:02.959Z,59.74
2023-03-24T14:43:15.904Z,59.32
2023-03-24T14:48:29.725Z,59.56
2023-03-24T14:53:37.401Z,58.98
2023-03-24T14:58:42.794Z,58.27
2023-03-24T15:03:53.556Z,58.27
2023-03-24T15:09:01.441Z,58.82
2023-03-24T15:14:05.459Z,58.24
2023-03-24T15:19:22.928Z,58.62
2023-03-24T15:24:36.102Z,58.34
2023-03-24T15:29:42.818Z,58.20
2023-03-24T15:34:50.770Z,57.94
2023-03-24T15:40:01.896Z,58.19
2023-03-24T15:45:26.494Z,58.64
2023-03-24T15:50:39.734Z,57.48
2023-03-24T15:55:43.179Z,58.08
2023-03-24T16:00:45.708Z,58.37
2023-03-24T16:05:48.961Z,58.42
2023-03-24T16:10:59.345Z,58.75
2023-03-24T16:16:17.261Z,59.00
2023-03-24T16:21:27.247Z,59.37
2023-03-24T16:26:31.422Z,59.56
2023-03-24T16:31:35.508Z,59.38
2023-03-24T16:36:37.132Z,59.20
2023-03-24T16:41:38.594Z,59.51
2023-03-24T16:46:41.227Z,59.26
2023-03-24T16:51:43.389Z,60.23
2023-03-24T16:56:44.881Z,60.06
2023-03-24T17:01:46.784Z,60.30
2023-03-24T17:06:52.802Z,60.47
2023-03-24T17:11:57.013Z,60.32
2023-03-24T17:16:59.734Z,61.20
2023-03-24T17:22:03.636Z,60.69
2023-03-24T17:27:18.796Z,60.83
2023-03-24T17:32:22.288Z,61.30
2023-03-24T17:37:25.909Z,61.95
2023-03-24T17:42:28.694Z,61.71
2023-03-24T17:47:30.913Z,62.39
2023-03-24T17:52:32.517Z,66.80
2023-03-24T17:57:34.500Z,68.74
2023-03-24T18:02:36.055Z,73.61
2023-03-24T18:07:39.810Z,71.27
2023-03-24T18:12:41.558Z,70.33
2023-03-24T18:17:43.055Z,68.21
2023-03-24T18:22:44.526Z,67.79
2023-03-24T18:27:46.182Z,67.99
2023-03-24T18:32:48.348Z,68.41
2023-03-24T18:37:49.815Z,73.42
2023-03-24T18:42:51.392Z,75.33
2023-03-24T18:47:52.869Z,73.13
2023-03-24T18:52:54.322Z,72.61
2023-03-24T18:57:55.937Z,73.32
2023-03-24T19:02:57.484Z,73.07
2023-03-24T19:08:01.479Z,73.50
2023-03-24T19:13:05.241Z,73.95
2023-03-24T19:18:07.575Z,74.50
2023-03-24T19:23:09.156Z,74.44
2023-03-24T19:28:10.595Z,75.50
2023-03-24T19:33:13.229Z,75.84
2023-03-24T19:38:16.278Z,75.55
2023-03-24T19:43:18.399Z,75.79
2023-03-24T19:48:20.879Z,75.57
2023-03-24T19:53:24.368Z,75.84
2023-03-24T19:58:26.049Z,75.63
2023-03-24T20:03:28.808Z,75.69
2023-03-24T20:08:30.805Z,76.00
2023-03-24T20:13:32.235Z,75.83
2023-03-24T20:18:34.561Z,75.84
2023-03-24T20:23:36.187Z,75.60
2023-03-24T20:28:37.601Z,75.71
2023-03-24T20:33:39.066Z,75.43
2023-03-24T20:38:40.796Z,75.28
2023-03-24T20:43:42.371Z,75.17
2023-03-24T20:48:44.040Z,75.37
2023-03-24T20:53:49.784Z,75.46
2023-03-24T20:58:52.082Z,75.90
2023-03-24T21:03:55.608Z,75.78
2023-03-24T21:09:01.588Z,75.76
2023-03-24T21:14:03.772Z,75.20
2023-03-24T21:19:05.250Z,74.62
2023-03-24T21:24:06.968Z,72.83
2023-03-24T21:29:08.370Z,71.79
2023-03-24T21:34:09.969Z,70.04
2023-03-24T21:39:12.064Z,69.60
2023-03-24T21:44:13.726Z,69.59
2023-03-24T21:49:18.818Z,69.22
2023-03-24T21:54:20.899Z,67.82
2023-03-24T21:59:23.203Z,67.30
2023-03-24T22:04:25.230Z,68.45
2023-03-24T22:09:27.517Z,68.05
2023-03-24T22:14:28.936Z,68.08
2023-03-24T22:19:30.493Z,67.88
2023-03-24T22:24:31.959Z,67.64
2023-03-24T22:29:33.362Z,67.46
2023-03-24T22:34:34.815Z,68.47
2023-03-24T22:39:36.331Z,67.82
2023-03-24T22:44:38.481Z,67.71
2023-03-24T22:49:41.419Z,67.59
2023-03-24T22:54:42.997Z,67.47
2023-03-24T22:59:44.619Z,67.44
2023-03-24T23:04:46.365Z,67.82
2023-03-24T23:09:47.880Z,67.30
2023-03-24T23:14:49.375Z,67.82
2023-03-24T23:19:52.095Z,67.93
2023-03-24T23:25:00.534Z,68.02
2023-03-24T23:30:07.078Z,67.50
2023-03-24T23:35:09.433Z,67.56
2023-03-24T23:40:14.946Z,67.79
2023-03-24T23:45:19.290Z,67.96
2023-03-24T23:50:21.543Z,67.75
2023-03-24T23:55:23.115Z,68.00
